sensor_id;sensor_type;location;lat;lon;timestamp;P1;durP1;ratioP1;P2;durP2;ratioP2
59042;SDS011;44826;51.596;5.624;2022-10-04T00:00:22;9.38;;;4.72;;
59042;SDS011;44826;51.596;5.624;2022-10-04T00:02:50;8.70;;;5.28;;
59042;SDS011;44826;51.596;5.624;2022-10-04T00:05:19;7.63;;;4.78;;
59042;SDS011;44826;51.596;5.624;2022-10-04T00:07:49;9.30;;;4.43;;
59042;SDS011;44826;51.596;5.624;2022-10-04T00:12:48;8.75;;;4.88;;
59042;SDS011;44826;51.596;5.624;2022-10-04T00:18:03;7.20;;;4.53;;
59042;SDS011;44826;51.596;5.624;2022-10-04T00:25:48;8.73;;;4.40;;
59042;SDS011;44826;51.596;5.624;2022-10-04T00:33:44;9.75;;;4.78;;
59042;SDS011;44826;51.596;5.624;2022-10-04T00:44:17;7.07;;;5.00;;
59042;SDS011;44826;51.596;5.624;2022-10-04T00:46:53;9.63;;;5.05;;
59042;SDS011;44826;51.596;5.624;2022-10-04T00:49:21;6.90;;;5.10;;
59042;SDS011;44826;51.596;5.624;2022-10-04T00:51:54;7.85;;;4.82;;
59042;SDS011;44826;51.596;5.624;2022-10-04T00:54:24;8.15;;;4.88;;
59042;SDS011;44826;51.596;5.624;2022-10-04T00:57:07;7.30;;;5.20;;
59042;SDS011;44826;51.596;5.624;2022-10-04T01:02:13;9.55;;;5.20;;
59042;SDS011;44826;51.596;5.624;2022-10-04T01:07:38;8.40;;;4.90;;
59042;SDS011;44826;51.596;5.624;2022-10-04T01:13:07;7.95;;;5.32;;
59042;SDS011;44826;51.596;5.624;2022-10-04T01:15:52;10.05;;;5.15;;
59042;SDS011;44826;51.596;5.624;2022-10-04T01:23:13;9.10;;;5.30;;
59042;SDS011;44826;51.596;5.624;2022-10-04T01:25:55;9.55;;;5.28;;
59042;SDS011;44826;51.596;5.624;2022-10-04T01:28:21;11.38;;;5.38;;
59042;SDS011;44826;51.596;5.624;2022-10-04T01:30:46;10.75;;;5.53;;
59042;SDS011;44826;51.596;5.624;2022-10-04T01:33:12;8.98;;;5.40;;
59042;SDS011;44826;51.596;5.624;2022-10-04T01:35:37;7.95;;;5.30;;
59042;SDS011;44826;51.596;5.624;2022-10-04T01:38:03;10.73;;;5.45;;
59042;SDS011;44826;51.596;5.624;2022-10-04T01:40:31;9.02;;;5.07;;
59042;SDS011;44826;51.596;5.624;2022-10-04T01:43:01;9.40;;;5.25;;
59042;SDS011;44826;51.596;5.624;2022-10-04T01:48:13;9.18;;;4.93;;
59042;SDS011;44826;51.596;5.624;2022-10-04T01:50:45;7.55;;;4.85;;
59042;SDS011;44826;51.596;5.624;2022-10-04T01:53:23;9.40;;;5.53;;
59042;SDS011;44826;51.596;5.624;2022-10-04T01:55:53;9.73;;;5.80;;
59042;SDS011;44826;51.596;5.624;2022-10-04T01:58:29;8.98;;;5.22;;
59042;SDS011;44826;51.596;5.624;2022-10-04T02:01:05;7.57;;;5.35;;
59042;SDS011;44826;51.596;5.624;2022-10-04T02:06:03;6.63;;;4.70;;
59042;SDS011;44826;51.596;5.624;2022-10-04T02:08:31;8.20;;;5.13;;
59042;SDS011;44826;51.596;5.624;2022-10-04T02:11:01;8.95;;;5.25;;
59042;SDS011;44826;51.596;5.624;2022-10-04T02:13:32;8.82;;;5.47;;
59042;SDS011;44826;51.596;5.624;2022-10-04T02:16:00;9.57;;;5.60;;
59042;SDS011;44826;51.596;5.624;2022-10-04T02:18:27;9.10;;;5.32;;
59042;SDS011;44826;51.596;5.624;2022-10-04T02:20:55;6.55;;;5.05;;
59042;SDS011;44826;51.596;5.624;2022-10-04T02:23:22;12.07;;;6.05;;
59042;SDS011;44826;51.596;5.624;2022-10-04T02:25:48;12.10;;;5.95;;
59042;SDS011;44826;51.596;5.624;2022-10-04T02:28:14;10.23;;;5.78;;
59042;SDS011;44826;51.596;5.624;2022-10-04T02:30:43;8.25;;;5.47;;
59042;SDS011;44826;51.596;5.624;2022-10-04T02:33:32;10.43;;;5.53;;
59042;SDS011;44826;51.596;5.624;2022-10-04T02:36:02;10.05;;;5.70;;
59042;SDS011;44826;51.596;5.624;2022-10-04T02:38:29;8.05;;;5.40;;
59042;SDS011;44826;51.596;5.624;2022-10-04T02:41:04;10.23;;;6.00;;
59042;SDS011;44826;51.596;5.624;2022-10-04T02:43:55;9.88;;;5.60;;
59042;SDS011;44826;51.596;5.624;2022-10-04T02:46:27;11.38;;;5.55;;
59042;SDS011;44826;51.596;5.624;2022-10-04T02:48:57;10.07;;;5.82;;
59042;SDS011;44826;51.596;5.624;2022-10-04T02:51:31;10.43;;;5.93;;
59042;SDS011;44826;51.596;5.624;2022-10-04T02:54:09;9.80;;;6.05;;
59042;SDS011;44826;51.596;5.624;2022-10-04T02:56:38;8.98;;;5.63;;
59042;SDS011;44826;51.596;5.624;2022-10-04T02:59:04;11.77;;;5.68;;
59042;SDS011;44826;51.596;5.624;2022-10-04T03:04:17;9.48;;;5.40;;
59042;SDS011;44826;51.596;5.624;2022-10-04T03:06:47;9.38;;;5.43;;
59042;SDS011;44826;51.596;5.624;2022-10-04T03:09:13;11.55;;;6.03;;
59042;SDS011;44826;51.596;5.624;2022-10-04T03:11:40;7.95;;;5.47;;
59042;SDS011;44826;51.596;5.624;2022-10-04T03:14:13;9.00;;;5.47;;
59042;SDS011;44826;51.596;5.624;2022-10-04T03:16:43;8.13;;;5.35;;
59042;SDS011;44826;51.596;5.624;2022-10-04T03:19:09;10.10;;;5.32;;
59042;SDS011;44826;51.596;5.624;2022-10-04T03:21:38;10.48;;;5.75;;
59042;SDS011;44826;51.596;5.624;2022-10-04T03:24:05;8.20;;;5.40;;
59042;SDS011;44826;51.596;5.624;2022-10-04T03:29:10;11.50;;;5.97;;
59042;SDS011;44826;51.596;5.624;2022-10-04T03:31:47;9.50;;;5.50;;
59042;SDS011;44826;51.596;5.624;2022-10-04T03:34:18;11.68;;;5.70;;
59042;SDS011;44826;51.596;5.624;2022-10-04T03:36:46;8.88;;;5.28;;
59042;SDS011;44826;51.596;5.624;2022-10-04T03:41:53;9.05;;;5.53;;
59042;SDS011;44826;51.596;5.624;2022-10-04T03:44:22;7.85;;;4.72;;
59042;SDS011;44826;51.596;5.624;2022-10-04T03:46:48;7.68;;;5.32;;
59042;SDS011;44826;51.596;5.624;2022-10-04T03:49:15;7.10;;;4.80;;
59042;SDS011;44826;51.596;5.624;2022-10-04T03:51:47;8.23;;;5.07;;
59042;SDS011;44826;51.596;5.624;2022-10-04T03:54:16;8.98;;;5.13;;
59042;SDS011;44826;51.596;5.624;2022-10-04T03:56:46;8.52;;;5.35;;
59042;SDS011;44826;51.596;5.624;2022-10-04T03:59:13;9.40;;;5.55;;
59042;SDS011;44826;51.596;5.624;2022-10-04T04:07:38;9.35;;;4.97;;
59042;SDS011;44826;51.596;5.624;2022-10-04T04:10:19;8.55;;;4.97;;
59042;SDS011;44826;51.596;5.624;2022-10-04T04:12:51;10.15;;;5.07;;
59042;SDS011;44826;51.596;5.624;2022-10-04T04:15:22;8.85;;;5.38;;
59042;SDS011;44826;51.596;5.624;2022-10-04T04:17:54;7.53;;;4.97;;
59042;SDS011;44826;51.596;5.624;2022-10-04T04:20:25;8.55;;;4.95;;
59042;SDS011;44826;51.596;5.624;2022-10-04T04:25:37;8.60;;;5.18;;
59042;SDS011;44826;51.596;5.624;2022-10-04T04:34:03;7.93;;;4.65;;
59042;SDS011;44826;51.596;5.624;2022-10-04T04:36:39;7.10;;;5.20;;
59042;SDS011;44826;51.596;5.624;2022-10-04T04:39:21;8.98;;;4.68;;
59042;SDS011;44826;51.596;5.624;2022-10-04T04:42:19;7.63;;;4.75;;
59042;SDS011;44826;51.596;5.624;2022-10-04T04:44:56;8.48;;;5.03;;
59042;SDS011;44826;51.596;5.624;2022-10-04T04:47:32;8.98;;;5.00;;
59042;SDS011;44826;51.596;5.624;2022-10-04T04:50:03;9.18;;;5.10;;
59042;SDS011;44826;51.596;5.624;2022-10-04T04:52:31;8.88;;;4.88;;
59042;SDS011;44826;51.596;5.624;2022-10-04T04:54:58;9.23;;;4.97;;
59042;SDS011;44826;51.596;5.624;2022-10-04T04:57:24;7.53;;;4.35;;
59042;SDS011;44826;51.596;5.624;2022-10-04T04:59:52;10.00;;;5.05;;
59042;SDS011;44826;51.596;5.624;2022-10-04T05:02:34;8.10;;;4.63;;
59042;SDS011;44826;51.596;5.624;2022-10-04T05:08:03;9.05;;;4.88;;
59042;SDS011;44826;51.596;5.624;2022-10-04T05:10:37;7.00;;;4.43;;
59042;SDS011;44826;51.596;5.624;2022-10-04T05:13:07;9.10;;;4.72;;
59042;SDS011;44826;51.596;5.624;2022-10-04T05:15:35;12.30;;;5.28;;
59042;SDS011;44826;51.596;5.624;2022-10-04T05:18:11;10.30;;;5.20;;
59042;SDS011;44826;51.596;5.624;2022-10-04T05:20:42;7.72;;;4.60;;
59042;SDS011;44826;51.596;5.624;2022-10-04T05:23:12;9.75;;;4.95;;
59042;SDS011;44826;51.596;5.624;2022-10-04T05:25:37;6.30;;;4.30;;
59042;SDS011;44826;51.596;5.624;2022-10-04T05:28:03;9.57;;;4.78;;
59042;SDS011;44826;51.596;5.624;2022-10-04T05:33:13;7.53;;;4.57;;
59042;SDS011;44826;51.596;5.624;2022-10-04T05:41:24;7.22;;;4.35;;
59042;SDS011;44826;51.596;5.624;2022-10-04T05:43:59;8.38;;;4.03;;
59042;SDS011;44826;51.596;5.624;2022-10-04T05:46:32;6.60;;;4.53;;
59042;SDS011;44826;51.596;5.624;2022-10-04T05:49:06;6.93;;;4.07;;
59042;SDS011;44826;51.596;5.624;2022-10-04T05:54:28;6.45;;;4.18;;
59042;SDS011;44826;51.596;5.624;2022-10-04T06:02:38;5.60;;;3.80;;
59042;SDS011;44826;51.596;5.624;2022-10-04T06:08:23;6.80;;;4.15;;
59042;SDS011;44826;51.596;5.624;2022-10-04T06:24:43;5.40;;;3.30;;
59042;SDS011;44826;51.596;5.624;2022-10-04T06:27:24;6.13;;;3.70;;
59042;SDS011;44826;51.596;5.624;2022-10-04T06:29:56;7.75;;;3.55;;
59042;SDS011;44826;51.596;5.624;2022-10-04T06:32:40;7.70;;;4.05;;
59042;SDS011;44826;51.596;5.624;2022-10-04T06:44:19;7.97;;;3.65;;
59042;SDS011;44826;51.596;5.624;2022-10-04T06:49:44;7.75;;;3.92;;
59042;SDS011;44826;51.596;5.624;2022-10-04T06:55:19;6.32;;;3.58;;
59042;SDS011;44826;51.596;5.624;2022-10-04T07:00:45;6.72;;;3.60;;
59042;SDS011;44826;51.596;5.624;2022-10-04T07:03:28;7.80;;;3.50;;
59042;SDS011;44826;51.596;5.624;2022-10-04T07:06:11;8.27;;;3.70;;
59042;SDS011;44826;51.596;5.624;2022-10-04T07:08:43;6.68;;;3.72;;
59042;SDS011;44826;51.596;5.624;2022-10-04T07:11:13;8.52;;;3.50;;
59042;SDS011;44826;51.596;5.624;2022-10-04T07:19:10;8.18;;;3.72;;
59042;SDS011;44826;51.596;5.624;2022-10-04T07:27:36;7.22;;;3.58;;
59042;SDS011;44826;51.596;5.624;2022-10-04T07:30:15;6.32;;;3.55;;
59042;SDS011;44826;51.596;5.624;2022-10-04T07:32:44;7.22;;;3.38;;
59042;SDS011;44826;51.596;5.624;2022-10-04T07:35:15;9.27;;;4.20;;
59042;SDS011;44826;51.596;5.624;2022-10-04T07:37:52;5.10;;;3.55;;
59042;SDS011;44826;51.596;5.624;2022-10-04T07:40:28;6.03;;;3.85;;
59042;SDS011;44826;51.596;5.624;2022-10-04T07:43:02;8.00;;;3.92;;
59042;SDS011;44826;51.596;5.624;2022-10-04T07:45:32;7.57;;;3.63;;
59042;SDS011;44826;51.596;5.624;2022-10-04T07:48:02;8.20;;;4.07;;
59042;SDS011;44826;51.596;5.624;2022-10-04T07:50:29;10.20;;;4.10;;
59042;SDS011;44826;51.596;5.624;2022-10-04T07:58:24;8.60;;;4.18;;
59042;SDS011;44826;51.596;5.624;2022-10-04T08:01:00;6.88;;;4.00;;
59042;SDS011;44826;51.596;5.624;2022-10-04T08:20:59;6.43;;;4.35;;
59042;SDS011;44826;51.596;5.624;2022-10-04T08:23:32;7.65;;;4.53;;
59042;SDS011;44826;51.596;5.624;2022-10-04T08:32:03;7.43;;;4.35;;
59042;SDS011;44826;51.596;5.624;2022-10-04T08:52:03;7.72;;;4.07;;
59042;SDS011;44826;51.596;5.624;2022-10-04T08:57:41;8.93;;;4.63;;
59042;SDS011;44826;51.596;5.624;2022-10-04T09:06:41;8.60;;;4.40;;
59042;SDS011;44826;51.596;5.624;2022-10-04T09:15:12;8.07;;;3.65;;
59042;SDS011;44826;51.596;5.624;2022-10-04T09:18:00;8.45;;;4.32;;
59042;SDS011;44826;51.596;5.624;2022-10-04T09:26:09;10.98;;;4.68;;
59042;SDS011;44826;51.596;5.624;2022-10-04T09:48:29;9.50;;;4.38;;
59042;SDS011;44826;51.596;5.624;2022-10-04T09:59:40;11.55;;;3.85;;
59042;SDS011;44826;51.596;5.624;2022-10-04T10:10:49;7.82;;;3.40;;
59042;SDS011;44826;51.596;5.624;2022-10-04T10:19:18;6.88;;;3.50;;
59042;SDS011;44826;51.596;5.624;2022-10-04T10:22:11;7.07;;;3.47;;
59042;SDS011;44826;51.596;5.624;2022-10-04T10:28:04;8.50;;;4.20;;
59042;SDS011;44826;51.596;5.624;2022-10-04T10:33:34;10.25;;;4.13;;
59042;SDS011;44826;51.596;5.624;2022-10-04T10:36:12;5.10;;;3.33;;
59042;SDS011;44826;51.596;5.624;2022-10-04T10:42:18;9.35;;;3.92;;
59042;SDS011;44826;51.596;5.624;2022-10-04T10:47:58;6.75;;;3.50;;
59042;SDS011;44826;51.596;5.624;2022-10-04T11:05:46;10.90;;;3.72;;
59042;SDS011;44826;51.596;5.624;2022-10-04T11:08:44;6.40;;;3.40;;
59042;SDS011;44826;51.596;5.624;2022-10-04T11:16:53;4.97;;;3.22;;
59042;SDS011;44826;51.596;5.624;2022-10-04T11:37:21;5.88;;;3.20;;
59042;SDS011;44826;51.596;5.624;2022-10-04T11:57:29;6.03;;;2.78;;
59042;SDS011;44826;51.596;5.624;2022-10-04T12:00:17;5.15;;;2.70;;
59042;SDS011;44826;51.596;5.624;2022-10-04T12:02:55;5.60;;;2.92;;
59042;SDS011;44826;51.596;5.624;2022-10-04T12:06:02;5.28;;;2.80;;
59042;SDS011;44826;51.596;5.624;2022-10-04T12:12:26;3.90;;;2.50;;
59042;SDS011;44826;51.596;5.624;2022-10-04T12:15:21;7.85;;;2.78;;
59042;SDS011;44826;51.596;5.624;2022-10-04T12:18:12;4.75;;;2.92;;
59042;SDS011;44826;51.596;5.624;2022-10-04T12:20:57;4.43;;;2.60;;
59042;SDS011;44826;51.596;5.624;2022-10-04T12:23:40;4.68;;;2.38;;
59042;SDS011;44826;51.596;5.624;2022-10-04T12:26:27;5.88;;;2.65;;
59042;SDS011;44826;51.596;5.624;2022-10-04T12:29:17;4.03;;;2.40;;
59042;SDS011;44826;51.596;5.624;2022-10-04T12:32:04;4.88;;;2.60;;
59042;SDS011;44826;51.596;5.624;2022-10-04T12:37:26;5.22;;;2.78;;
59042;SDS011;44826;51.596;5.624;2022-10-04T12:48:07;5.00;;;2.55;;
59042;SDS011;44826;51.596;5.624;2022-10-04T12:54:10;5.53;;;2.45;;
59042;SDS011;44826;51.596;5.624;2022-10-04T12:57:05;4.85;;;2.50;;
59042;SDS011;44826;51.596;5.624;2022-10-04T12:59:42;5.22;;;2.50;;
59042;SDS011;44826;51.596;5.624;2022-10-04T13:04:58;4.43;;;2.38;;
59042;SDS011;44826;51.596;5.624;2022-10-04T13:18:44;8.05;;;2.55;;
59042;SDS011;44826;51.596;5.624;2022-10-04T13:26:53;5.18;;;2.30;;
59042;SDS011;44826;51.596;5.624;2022-10-04T13:29:40;4.55;;;2.10;;
59042;SDS011;44826;51.596;5.624;2022-10-04T13:32:17;5.60;;;2.40;;
59042;SDS011;44826;51.596;5.624;2022-10-04T13:34:51;4.15;;;2.50;;
59042;SDS011;44826;51.596;5.624;2022-10-04T13:40:16;5.75;;;2.17;;
59042;SDS011;44826;51.596;5.624;2022-10-04T13:45:33;4.15;;;2.45;;
59042;SDS011;44826;51.596;5.624;2022-10-04T14:18:13;4.25;;;2.20;;
59042;SDS011;44826;51.596;5.624;2022-10-04T14:30:08;3.78;;;2.38;;
59042;SDS011;44826;51.596;5.624;2022-10-04T14:38:18;6.00;;;2.90;;
59042;SDS011;44826;51.596;5.624;2022-10-04T14:46:41;5.80;;;2.80;;
59042;SDS011;44826;51.596;5.624;2022-10-04T14:49:12;4.80;;;2.95;;
59042;SDS011;44826;51.596;5.624;2022-10-04T14:51:48;5.57;;;3.42;;
59042;SDS011;44826;51.596;5.624;2022-10-04T14:57:35;5.38;;;3.20;;
59042;SDS011;44826;51.596;5.624;2022-10-04T15:00:19;5.85;;;3.10;;
59042;SDS011;44826;51.596;5.624;2022-10-04T15:02:53;3.90;;;2.70;;
59042;SDS011;44826;51.596;5.624;2022-10-04T15:05:37;6.72;;;3.00;;
59042;SDS011;44826;51.596;5.624;2022-10-04T15:10:48;6.85;;;2.88;;
59042;SDS011;44826;51.596;5.624;2022-10-04T15:13:23;4.70;;;2.55;;
59042;SDS011;44826;51.596;5.624;2022-10-04T15:16:01;4.18;;;2.38;;
59042;SDS011;44826;51.596;5.624;2022-10-04T15:23:50;4.07;;;2.33;;
59042;SDS011;44826;51.596;5.624;2022-10-04T15:42:37;4.00;;;2.50;;
59042;SDS011;44826;51.596;5.624;2022-10-04T15:45:20;4.53;;;2.53;;
59042;SDS011;44826;51.596;5.624;2022-10-04T16:01:48;4.65;;;2.60;;
59042;SDS011;44826;51.596;5.624;2022-10-04T16:09:59;6.13;;;2.97;;
59042;SDS011;44826;51.596;5.624;2022-10-04T16:12:58;5.97;;;2.97;;
59042;SDS011;44826;51.596;5.624;2022-10-04T16:15:38;6.38;;;2.75;;
59042;SDS011;44826;51.596;5.624;2022-10-04T16:18:10;5.22;;;2.80;;
59042;SDS011;44826;51.596;5.624;2022-10-04T16:23:41;4.90;;;2.72;;
59042;SDS011;44826;51.596;5.624;2022-10-04T16:26:12;6.38;;;2.95;;
59042;SDS011;44826;51.596;5.624;2022-10-04T16:28:45;5.18;;;2.88;;
59042;SDS011;44826;51.596;5.624;2022-10-04T16:36:50;14.00;;;5.25;;
59042;SDS011;44826;51.596;5.624;2022-10-04T16:39:33;6.57;;;3.90;;
59042;SDS011;44826;51.596;5.624;2022-10-04T16:42:32;4.55;;;3.35;;
59042;SDS011;44826;51.596;5.624;2022-10-04T16:45:29;6.15;;;3.50;;
59042;SDS011;44826;51.596;5.624;2022-10-04T16:47:56;6.47;;;3.20;;
59042;SDS011;44826;51.596;5.624;2022-10-04T16:50:48;6.85;;;3.60;;
59042;SDS011;44826;51.596;5.624;2022-10-04T16:53:29;5.95;;;3.03;;
59042;SDS011;44826;51.596;5.624;2022-10-04T16:56:24;4.47;;;3.17;;
59042;SDS011;44826;51.596;5.624;2022-10-04T16:59:42;6.25;;;3.08;;
59042;SDS011;44826;51.596;5.624;2022-10-04T17:10:39;7.13;;;3.58;;
59042;SDS011;44826;51.596;5.624;2022-10-04T17:21:36;8.48;;;3.90;;
59042;SDS011;44826;51.596;5.624;2022-10-04T17:24:13;7.05;;;4.15;;
59042;SDS011;44826;51.596;5.624;2022-10-04T17:27:42;8.43;;;4.60;;
59042;SDS011;44826;51.596;5.624;2022-10-04T17:37:52;7.03;;;4.22;;
59042;SDS011;44826;51.596;5.624;2022-10-04T17:40:54;5.72;;;3.72;;
59042;SDS011;44826;51.596;5.624;2022-10-04T17:43:42;8.43;;;3.63;;
59042;SDS011;44826;51.596;5.624;2022-10-04T17:49:11;6.10;;;3.83;;
59042;SDS011;44826;51.596;5.624;2022-10-04T17:52:31;5.78;;;3.80;;
59042;SDS011;44826;51.596;5.624;2022-10-04T17:58:24;6.57;;;3.90;;
59042;SDS011;44826;51.596;5.624;2022-10-04T18:03:31;6.63;;;4.20;;
59042;SDS011;44826;51.596;5.624;2022-10-04T18:06:10;8.63;;;4.05;;
59042;SDS011;44826;51.596;5.624;2022-10-04T18:17:01;6.93;;;4.40;;
59042;SDS011;44826;51.596;5.624;2022-10-04T18:22:15;9.13;;;4.40;;
59042;SDS011;44826;51.596;5.624;2022-10-04T18:24:46;12.43;;;4.63;;
59042;SDS011;44826;51.596;5.624;2022-10-04T18:27:15;9.82;;;4.55;;
59042;SDS011;44826;51.596;5.624;2022-10-04T18:32:37;8.02;;;4.40;;
59042;SDS011;44826;51.596;5.624;2022-10-04T18:37:55;7.93;;;4.13;;
59042;SDS011;44826;51.596;5.624;2022-10-04T18:40:40;8.68;;;4.45;;
59042;SDS011;44826;51.596;5.624;2022-10-04T18:43:22;8.50;;;4.35;;
59042;SDS011;44826;51.596;5.624;2022-10-04T18:53:45;7.50;;;4.32;;
59042;SDS011;44826;51.596;5.624;2022-10-04T18:56:25;6.43;;;4.50;;
59042;SDS011;44826;51.596;5.624;2022-10-04T19:02:05;7.32;;;4.57;;
59042;SDS011;44826;51.596;5.624;2022-10-04T19:07:35;7.65;;;4.55;;
59042;SDS011;44826;51.596;5.624;2022-10-04T19:17:51;8.63;;;4.22;;
59042;SDS011;44826;51.596;5.624;2022-10-04T19:25:43;8.38;;;4.80;;
59042;SDS011;44826;51.596;5.624;2022-10-04T19:33:41;7.18;;;4.60;;
59042;SDS011;44826;51.596;5.624;2022-10-04T19:38:55;7.60;;;4.80;;
59042;SDS011;44826;51.596;5.624;2022-10-04T19:56:00;7.93;;;4.70;;
59042;SDS011;44826;51.596;5.624;2022-10-04T20:01:25;8.98;;;4.55;;
59042;SDS011;44826;51.596;5.624;2022-10-04T20:03:51;8.73;;;5.10;;
59042;SDS011;44826;51.596;5.624;2022-10-04T20:06:36;7.65;;;4.80;;
59042;SDS011;44826;51.596;5.624;2022-10-04T20:09:21;8.60;;;5.00;;
59042;SDS011;44826;51.596;5.624;2022-10-04T20:11:48;9.68;;;4.97;;
59042;SDS011;44826;51.596;5.624;2022-10-04T20:19:19;7.03;;;4.57;;
59042;SDS011;44826;51.596;5.624;2022-10-04T20:26:59;6.78;;;4.25;;
59042;SDS011;44826;51.596;5.624;2022-10-04T20:32:01;9.00;;;4.50;;
59042;SDS011;44826;51.596;5.624;2022-10-04T20:36:59;8.02;;;4.35;;
59042;SDS011;44826;51.596;5.624;2022-10-04T20:39:54;9.10;;;4.47;;
59042;SDS011;44826;51.596;5.624;2022-10-04T20:42:27;8.60;;;4.70;;
59042;SDS011;44826;51.596;5.624;2022-10-04T20:44:58;6.82;;;4.28;;
59042;SDS011;44826;51.596;5.624;2022-10-04T20:47:28;7.50;;;4.55;;
59042;SDS011;44826;51.596;5.624;2022-10-04T20:49:57;7.38;;;4.25;;
59042;SDS011;44826;51.596;5.624;2022-10-04T20:52:29;7.28;;;4.40;;
59042;SDS011;44826;51.596;5.624;2022-10-04T20:54:56;7.73;;;4.00;;
59042;SDS011;44826;51.596;5.624;2022-10-04T20:57:25;8.80;;;4.28;;
59042;SDS011;44826;51.596;5.624;2022-10-04T20:59:51;6.78;;;4.50;;
59042;SDS011;44826;51.596;5.624;2022-10-04T21:02:19;8.60;;;4.65;;
59042;SDS011;44826;51.596;5.624;2022-10-04T21:04:46;8.02;;;4.60;;
59042;SDS011;44826;51.596;5.624;2022-10-04T21:07:16;8.00;;;4.57;;
59042;SDS011;44826;51.596;5.624;2022-10-04T21:09:43;9.63;;;4.60;;
59042;SDS011;44826;51.596;5.624;2022-10-04T21:15:11;7.03;;;4.28;;
59042;SDS011;44826;51.596;5.624;2022-10-04T21:17:42;7.47;;;4.53;;
59042;SDS011;44826;51.596;5.624;2022-10-04T21:23:17;9.45;;;4.90;;
59042;SDS011;44826;51.596;5.624;2022-10-04T21:26:19;8.60;;;4.13;;
59042;SDS011;44826;51.596;5.624;2022-10-04T21:28:44;9.57;;;5.10;;
59042;SDS011;44826;51.596;5.624;2022-10-04T21:31:11;7.60;;;4.68;;
59042;SDS011;44826;51.596;5.624;2022-10-04T21:33:36;8.90;;;5.10;;
59042;SDS011;44826;51.596;5.624;2022-10-04T21:36:02;7.20;;;4.85;;
59042;SDS011;44826;51.596;5.624;2022-10-04T21:38:28;8.60;;;5.00;;
59042;SDS011;44826;51.596;5.624;2022-10-04T21:40:54;8.68;;;5.03;;
59042;SDS011;44826;51.596;5.624;2022-10-04T21:43:20;9.32;;;5.00;;
59042;SDS011;44826;51.596;5.624;2022-10-04T21:45:46;8.23;;;4.70;;
59042;SDS011;44826;51.596;5.624;2022-10-04T21:48:11;8.32;;;4.90;;
59042;SDS011;44826;51.596;5.624;2022-10-04T21:50:37;8.00;;;5.00;;
59042;SDS011;44826;51.596;5.624;2022-10-04T21:53:02;7.50;;;4.85;;
59042;SDS011;44826;51.596;5.624;2022-10-04T21:55:27;7.03;;;4.75;;
59042;SDS011;44826;51.596;5.624;2022-10-04T21:57:53;9.05;;;4.97;;
59042;SDS011;44826;51.596;5.624;2022-10-04T22:00:18;8.32;;;4.60;;
59042;SDS011;44826;51.596;5.624;2022-10-04T22:02:43;7.07;;;4.70;;
59042;SDS011;44826;51.596;5.624;2022-10-04T22:05:08;8.77;;;4.57;;
59042;SDS011;44826;51.596;5.624;2022-10-04T22:07:34;7.57;;;4.53;;
59042;SDS011;44826;51.596;5.624;2022-10-04T22:09:59;7.63;;;4.55;;
59042;SDS011;44826;51.596;5.624;2022-10-04T22:12:24;9.05;;;4.22;;
59042;SDS011;44826;51.596;5.624;2022-10-04T22:14:50;6.53;;;4.05;;
59042;SDS011;44826;51.596;5.624;2022-10-04T22:17:15;7.20;;;4.20;;
59042;SDS011;44826;51.596;5.624;2022-10-04T22:19:41;6.28;;;4.18;;
59042;SDS011;44826;51.596;5.624;2022-10-04T22:22:11;7.00;;;4.30;;
59042;SDS011;44826;51.596;5.624;2022-10-04T22:24:38;9.30;;;4.40;;
59042;SDS011;44826;51.596;5.624;2022-10-04T22:27:06;9.13;;;4.43;;
59042;SDS011;44826;51.596;5.624;2022-10-04T22:29:37;5.90;;;4.45;;
59042;SDS011;44826;51.596;5.624;2022-10-04T22:32:05;7.50;;;4.50;;
59042;SDS011;44826;51.596;5.624;2022-10-04T22:34:36;7.65;;;4.20;;
59042;SDS011;44826;51.596;5.624;2022-10-04T22:37:01;7.00;;;4.38;;
59042;SDS011;44826;51.596;5.624;2022-10-04T22:39:26;6.82;;;4.63;;
59042;SDS011;44826;51.596;5.624;2022-10-04T22:41:55;7.22;;;4.45;;
59042;SDS011;44826;51.596;5.624;2022-10-04T22:44:25;7.13;;;4.53;;
59042;SDS011;44826;51.596;5.624;2022-10-04T22:46:54;7.22;;;4.60;;
59042;SDS011;44826;51.596;5.624;2022-10-04T22:49:21;9.95;;;4.55;;
59042;SDS011;44826;51.596;5.624;2022-10-04T22:51:49;8.63;;;4.45;;
59042;SDS011;44826;51.596;5.624;2022-10-04T22:54:17;7.50;;;5.00;;
59042;SDS011;44826;51.596;5.624;2022-10-04T22:56:44;8.40;;;4.85;;
59042;SDS011;44826;51.596;5.624;2022-10-04T22:59:10;8.80;;;5.07;;
59042;SDS011;44826;51.596;5.624;2022-10-04T23:01:37;7.57;;;4.93;;
59042;SDS011;44826;51.596;5.624;2022-10-04T23:04:03;8.23;;;5.03;;
59042;SDS011;44826;51.596;5.624;2022-10-04T23:06:35;8.57;;;5.03;;
59042;SDS011;44826;51.596;5.624;2022-10-04T23:09:00;7.05;;;5.20;;
59042;SDS011;44826;51.596;5.624;2022-10-04T23:11:25;8.80;;;5.53;;
59042;SDS011;44826;51.596;5.624;2022-10-04T23:13:56;8.13;;;5.15;;
59042;SDS011;44826;51.596;5.624;2022-10-04T23:16:21;8.60;;;5.22;;
59042;SDS011;44826;51.596;5.624;2022-10-04T23:18:47;8.18;;;5.07;;
59042;SDS011;44826;51.596;5.624;2022-10-04T23:21:21;8.52;;;5.20;;
59042;SDS011;44826;51.596;5.624;2022-10-04T23:23:47;9.02;;;5.00;;
59042;SDS011;44826;51.596;5.624;2022-10-04T23:26:18;9.60;;;5.13;;
59042;SDS011;44826;51.596;5.624;2022-10-04T23:28:46;9.93;;;5.00;;
59042;SDS011;44826;51.596;5.624;2022-10-04T23:31:18;9.80;;;5.72;;
59042;SDS011;44826;51.596;5.624;2022-10-04T23:33:47;8.95;;;5.03;;
59042;SDS011;44826;51.596;5.624;2022-10-04T23:36:12;7.22;;;4.90;;
59042;SDS011;44826;51.596;5.624;2022-10-04T23:38:40;8.65;;;5.10;;
59042;SDS011;44826;51.596;5.624;2022-10-04T23:41:10;8.33;;;5.13;;
59042;SDS011;44826;51.596;5.624;2022-10-04T23:43:36;7.43;;;5.13;;
59042;SDS011;44826;51.596;5.624;2022-10-04T23:46:01;7.80;;;5.25;;
59042;SDS011;44826;51.596;5.624;2022-10-04T23:48:35;6.32;;;4.82;;
59042;SDS011;44826;51.596;5.624;2022-10-04T23:51:01;8.55;;;5.28;;
59042;SDS011;44826;51.596;5.624;2022-10-04T23:53:26;8.65;;;5.50;;
59042;SDS011;44826;51.596;5.624;2022-10-04T23:55:54;7.40;;;5.40;;
59042;SDS011;44826;51.596;5.624;2022-10-04T23:58:22;8.50;;;5.68;;
